Du har inga inställningar för hoppväder.nu

Hoppväder.nu

Senast uppdaterat 01:43

UTC-tid

2022-05-23 kl. 23:43


Sol och måne

Solen går upp 4:28 och går ner 22:34 (beräknade cirkatider)
Nästa fullmåne blir om 21 dagar (2022-06-14)

METAR

ESMX (Växjö)
(1463 minuter sedan)
ESMX 232320Z 13005KT CAVOK 08/05 Q1008=



ESMT (Halmstad)
(1463 minuter sedan)
ESMT 232320Z AUTO 11010KT 080V140 9999 NCD 11/04 Q1005=



ESGJ (Jönköping)
(1463 minuter sedan)
ESGJ 232320Z 13008KT CAVOK 09/06 Q1007=



ESMK (Everöd)
(1463 minuter sedan)
ESMK 232320Z AUTO 10006KT 9999 NCD 10/07 Q1006=






TAF

ESMX (Växjö)
(193 minuter sedan)
ESMX 232030Z 2321/2401 14005KT CAVOK=



ESMT (Halmstad)
ESMT



ESGJ (Jönköping)
(193 minuter sedan)
ESGJ 232030Z 2321/2401 15005KT CAVOK=



ESMK (Everöd)
ESMK





Kodnycklar till TAF och METAR






LHP

(Feringe är område se22g i Delområde 2)

Prognos är inte uppdaterad






Preliminär prognos